Time;durP1;ratioP1;P1;durP2;ratioP2;P2;SDS_P1;SDS_P2;PMS_P1;PMS_P2;Temp;Humidity;BMP_temperature;BMP_pressure;BME280_temperature;BME280_humidity;BME280_pressure;Samples;Min_cycle;Max_cycle;Signal;HPM_P1;HPM_P2
2022/05/18 00:00:16;;;;;;;8.05;3.83;;;;;;;17.63;61.21;96164.75;5115861;28;20024;-62
2022/05/18 00:02:41;;;;;;;8.90;3.35;;;;;;;17.77;60.85;96186.72;5115808;28;20080;-62
2022/05/18 00:05:08;;;;;;;5.82;3.22;;;;;;;17.90;60.94;96199.88;5115612;27;20028;-64
2022/05/18 00:07:33;;;;;;;8.68;3.60;;;;;;;17.91;61.78;96215.63;5115628;27;20111;-62
2022/05/18 00:09:59;;;;;;;7.38;3.80;;;;;;;17.99;61.66;96217.72;5115646;28;20114;-62
2022/05/18 00:12:25;;;;;;;7.25;3.70;;;;;;;18.00;62.50;96202.72;5115585;28;20111;-65
2022/05/18 00:14:52;;;;;;;9.07;4.07;;;;;;;18.02;61.63;96208.72;5115568;28;20095;-61
2022/05/18 00:17:17;;;;;;;10.20;3.47;;;;;;;18.08;61.67;96216.19;5115509;28;20023;-62
2022/05/18 00:19:43;;;;;;;10.13;3.08;;;;;;;18.10;62.20;96213.44;5115382;28;20032;-61
2022/05/18 00:22:09;;;;;;;5.43;2.33;;;;;;;17.98;63.68;96205.47;5115242;28;20435;-65
2022/05/18 00:24:35;;;;;;;6.30;2.88;;;;;;;17.83;66.27;96222.44;5115254;28;20027;-63
2022/05/18 00:27:03;;;;;;;3.17;1.75;;;;;;;17.35;67.72;96198.47;5115170;28;20065;-62
2022/05/18 00:29:30;;;;;;;4.97;1.88;;;;;;;17.13;70.19;96196.50;5115142;28;20107;-60
2022/05/18 00:31:56;;;;;;;2.67;1.85;;;;;;;16.94;70.72;96197.75;5115207;28;20076;-63
2022/05/18 00:34:21;;;;;;;4.18;1.88;;;;;;;16.74;72.46;96193.84;5114954;28;20023;-65
2022/05/18 00:36:47;;;;;;;1.73;1.63;;;;;;;16.54;72.89;96188.97;5115094;28;20027;-65
2022/05/18 00:39:13;;;;;;;1.92;1.58;;;;;;;16.25;74.12;96177.72;5115027;28;20028;-65
2022/05/18 00:41:39;;;;;;;3.58;1.73;;;;;;;16.14;75.85;96157.34;5114868;28;20031;-65
2022/05/18 00:44:06;;;;;;;2.55;2.10;;;;;;;15.96;75.56;96157.63;5114654;28;20040;-67
2022/05/18 00:46:31;;;;;;;2.10;1.90;;;;;;;15.96;76.03;96148.84;5114830;28;20019;-62
2022/05/18 00:48:57;;;;;;;5.80;1.77;;;;;;;15.88;75.70;96151.97;5114736;28;20149;-64
2022/05/18 00:51:31;;;;;;;3.45;1.75;;;;;;;15.85;75.86;96155.66;5114922;28;20016;-66
2022/05/18 00:54:06;;;;;;;4.25;1.85;;;;;;;15.87;75.11;96161.66;5114695;28;20529;-60
2022/05/18 00:56:47;;;;;;;2.17;1.50;;;;;;;15.88;74.39;96162.53;5114479;28;20092;-61
2022/05/18 00:59:18;;;;;;;4.00;1.67;;;;;;;15.89;75.49;96151.00;5114735;28;20023;-65
2022/05/18 01:01:45;;;;;;;2.92;1.85;;;;;;;15.94;75.51;96148.94;5114523;28;20072;-65
2022/05/18 01:04:13;;;;;;;3.85;1.67;;;;;;;15.94;73.69;96145.44;5114257;28;20115;-65
2022/05/18 01:06:51;;;;;;;4.60;2.05;;;;;;;16.03;73.03;96136.94;5114378;28;20039;-63
2022/05/18 01:09:24;;;;;;;3.05;1.88;;;;;;;16.03;73.01;96132.53;5114502;28;20373;-63
2022/05/18 01:11:49;;;;;;;1.63;1.52;;;;;;;16.02;72.94;96116.81;5114371;28;20027;-63
2022/05/18 01:14:20;;;;;;;1.60;1.50;;;;;;;16.04;73.35;96104.34;5114248;28;20059;-64
2022/05/18 01:16:47;;;;;;;1.85;1.65;;;;;;;15.98;72.65;96086.31;5112950;28;20026;-62
2022/05/18 01:19:33;;;;;;;2.47;1.52;;;;;;;15.94;72.45;96083.00;5114209;28;20027;-64
2022/05/18 01:22:23;;;;;;;1.90;1.80;;;;;;;15.96;72.95;96069.72;5114323;28;20024;-64
2022/05/18 01:25:18;;;;;;;1.73;1.60;;;;;;;16.01;71.89;96068.47;5114148;28;20030;-65
2022/05/18 01:27:44;;;;;;;2.03;1.45;;;;;;;16.01;72.72;96059.72;5114165;28;20031;-62
2022/05/18 01:30:12;;;;;;;2.70;1.67;;;;;;;16.06;72.26;96043.56;5113996;28;20024;-62
2022/05/18 01:32:42;;;;;;;3.08;1.45;;;;;;;16.11;71.79;96047.59;5114000;28;20020;-62
2022/05/18 01:35:12;;;;;;;1.60;1.40;;;;;;;16.09;71.26;96059.19;5113943;28;20027;-62
2022/05/18 01:37:38;;;;;;;2.00;1.50;;;;;;;16.15;72.15;96059.63;5114064;28;20016;-64
2022/05/18 01:40:26;;;;;;;4.93;1.70;;;;;;;16.19;73.68;96060.25;5113870;28;20346;-63
2022/05/18 01:43:01;;;;;;;2.28;1.73;;;;;;;16.17;74.43;96060.34;5091701;28;20039;-65
2022/05/18 01:45:26;;;;;;;5.47;1.70;;;;;;;16.19;73.31;96060.25;5113822;28;20024;-65
2022/05/18 01:47:52;;;;;;;1.83;1.42;;;;;;;16.22;72.68;96057.41;5113741;28;20030;-63
2022/05/18 01:50:25;;;;;;;1.95;1.60;;;;;;;16.24;72.16;96054.66;5113722;28;20024;-65
2022/05/18 01:52:51;;;;;;;1.83;1.70;;;;;;;16.27;72.91;96057.94;5113763;28;20019;-64
2022/05/18 01:55:17;;;;;;;4.30;1.60;;;;;;;16.33;75.12;96055.81;5113551;28;20023;-63
2022/05/18 01:57:43;;;;;;;2.40;2.20;;;;;;;16.23;75.25;96040.66;5113693;28;20027;-63
2022/05/18 02:00:11;;;;;;;3.25;1.73;;;;;;;16.15;74.77;96032.41;5113714;28;20028;-66
2022/05/18 02:02:38;;;;;;;1.67;1.58;;;;;;;16.20;75.69;96032.94;5113570;28;20102;-64
2022/05/18 02:05:04;;;;;;;3.35;1.90;;;;;;;16.23;75.70;96038.00;5113817;28;20024;-63
2022/05/18 02:07:29;;;;;;;2.67;2.08;;;;;;;16.23;75.58;96038.00;5113683;28;20542;-64
2022/05/18 02:09:55;;;;;;;3.05;1.77;;;;;;;16.26;75.96;96055.41;5113572;28;20495;-65
2022/05/18 02:12:21;;;;;;;2.85;2.10;;;;;;;16.16;76.34;96056.03;5113398;28;20024;-65
2022/05/18 02:14:46;;;;;;;4.07;1.77;;;;;;;16.02;75.69;96049.06;5113714;28;20095;-62
2022/05/18 02:17:12;;;;;;;5.55;1.85;;;;;;;16.01;75.66;96055.28;5117692;27;20102;-63
2022/05/18 02:19:37;;;;;;;2.00;1.90;;;;;;;15.91;75.40;96057.69;5117782;28;20420;-62
2022/05/18 02:22:04;;;;;;;3.38;1.88;;;;;;;15.87;75.86;96068.53;5117897;28;20354;-61
2022/05/18 02:24:30;;;;;;;2.30;1.88;;;;;;;15.89;76.87;96090.34;5117642;28;20020;-66
2022/05/18 02:26:56;;;;;;;2.78;1.88;;;;;;;15.90;77.33;96090.25;5117518;27;20027;-61
2022/05/18 02:29:21;;;;;;;3.08;2.20;;;;;;;15.91;77.37;96085.84;5117579;28;20019;-66
2022/05/18 02:31:47;;;;;;;2.50;2.10;;;;;;;15.85;76.89;96086.25;5117684;28;20015;-63
2022/05/18 02:34:13;;;;;;;2.70;2.17;;;;;;;15.82;77.44;96086.44;5117533;28;20091;-60
2022/05/18 02:36:38;;;;;;;2.42;2.22;;;;;;;15.81;77.31;96090.03;5117259;28;20427;-64
2022/05/18 02:39:04;;;;;;;2.45;2.03;;;;;;;15.75;76.87;96097.41;5117362;28;20552;-63
2022/05/18 02:41:30;;;;;;;5.57;1.95;;;;;;;15.66;76.61;96087.47;5117339;28;20072;-64
2022/05/18 02:43:55;;;;;;;1.98;1.88;;;;;;;15.60;76.42;96093.16;5117008;28;20050;-62
2022/05/18 02:46:22;;;;;;;2.22;1.80;;;;;;;15.48;76.29;96089.53;5117353;28;20016;-63
2022/05/18 02:48:51;;;;;;;5.63;1.60;;;;;;;15.46;76.29;96107.22;5117091;28;20020;-64
2022/05/18 02:51:17;;;;;;;2.05;1.85;;;;;;;15.32;77.08;96106.31;5116987;28;20031;-64
2022/05/18 02:53:43;;;;;;;1.85;1.75;;;;;;;15.22;77.22;96105.22;5117034;27;20030;-62
2022/05/18 02:56:12;;;;;;;4.28;2.22;;;;;;;15.08;77.32;96096.41;5117033;28;20028;-65
2022/05/18 02:58:48;;;;;;;5.60;1.80;;;;;;;14.99;77.89;96108.34;5116946;28;20019;-64
2022/05/18 03:01:20;;;;;;;2.97;1.95;;;;;;;14.91;78.11;96103.56;5117044;28;20516;-65
2022/05/18 03:03:45;;;;;;;2.63;2.22;;;;;;;14.84;77.62;96098.81;5116771;28;20028;-63
2022/05/18 03:06:14;;;;;;;3.60;1.77;;;;;;;14.80;77.27;96100.78;5116726;28;20024;-66
2022/05/18 03:08:42;;;;;;;4.28;2.05;;;;;;;14.63;77.59;96094.72;5116777;28;20019;-62
2022/05/18 03:11:09;;;;;;;1.85;1.75;;;;;;;14.63;77.19;96097.34;5116702;28;20103;-64
2022/05/18 03:13:35;;;;;;;4.40;1.77;;;;;;;14.63;77.15;96100.00;5116623;28;20077;-61
2022/05/18 03:16:01;;;;;;;2.30;2.10;;;;;;;14.64;77.11;96106.97;5116533;28;20023;-65
2022/05/18 03:18:27;;;;;;;1.75;1.60;;;;;;;14.63;77.27;96099.16;5116626;28;20027;-60
2022/05/18 03:23:37;;;;;;;1.90;1.80;;;;;;;14.59;76.11;96092.38;5116876;28;20034;-64
2022/05/18 03:26:24;;;;;;;6.45;1.80;;;;;;;14.64;76.81;96088.53;5116403;28;20047;-64
2022/05/18 03:28:51;;;;;;;3.63;1.73;;;;;;;14.71;76.25;96090.78;5116355;28;20121;-63
2022/05/18 03:31:17;;;;;;;3.85;1.70;;;;;;;14.69;75.83;96093.50;5116337;28;20028;-64
2022/05/18 03:33:44;;;;;;;2.20;1.60;;;;;;;14.63;75.46;96089.47;5116378;28;20024;-64
2022/05/18 03:36:12;;;;;;;4.95;1.90;;;;;;;14.64;75.53;96101.69;5116158;28;20126;-65
2022/05/18 03:38:39;;;;;;;7.65;2.10;;;;;;;14.68;75.67;96106.75;5116190;28;20035;-63
2022/05/18 03:41:05;;;;;;;2.25;1.70;;;;;;;14.76;75.92;96110.63;5116090;28;20465;-66
2022/05/18 03:43:31;;;;;;;2.95;1.60;;;;;;;14.95;75.76;96113.91;5115895;28;20092;-63
2022/05/18 03:45:59;;;;;;;3.10;1.77;;;;;;;15.31;74.15;96109.03;5115994;28;20102;-61
2022/05/18 03:48:25;;;;;;;4.35;1.75;;;;;;;15.67;72.85;96107.63;5116010;28;20032;-63
2022/05/18 03:50:53;;;;;;;3.88;1.63;;;;;;;16.00;71.28;96119.56;5115890;28;20023;-65
2022/05/18 03:53:19;;;;;;;3.25;1.45;;;;;;;16.39;69.48;96118.75;5115878;28;20035;-62
2022/05/18 03:55:44;;;;;;;2.13;1.20;;;;;;;16.84;67.98;96117.44;5115929;28;20380;-62
2022/05/18 03:58:11;;;;;;;2.42;1.50;;;;;;;17.28;66.38;96121.41;5115972;28;20460;-65
2022/05/18 04:00:39;;;;;;;5.20;1.50;;;;;;;17.72;65.41;96120.91;5115727;28;20018;-63
2022/05/18 04:03:06;;;;;;;1.38;1.27;;;;;;;18.20;63.59;96124.50;5115720;28;20075;-63
2022/05/18 04:05:32;;;;;;;5.85;1.30;;;;;;;18.63;62.01;96127.47;5115668;28;20031;-62
2022/05/18 04:07:58;;;;;;;6.38;1.20;;;;;;;19.04;61.13;96123.38;5115653;28;20030;-63
2022/05/18 04:10:24;;;;;;;2.63;1.30;;;;;;;19.48;59.27;96117.31;5115601;28;20377;-65
2022/05/18 04:12:50;;;;;;;1.63;1.33;;;;;;;19.89;58.57;96124.66;5115539;28;20028;-61
2022/05/18 04:15:18;;;;;;;4.25;1.63;;;;;;;20.16;58.00;96124.22;5115444;28;20015;-61
2022/05/18 04:29:20;;;;;;;2.13;1.10;;;;;;;22.34;52.87;96123.06;5131686;27;20399;-60
2022/05/18 04:31:46;;;;;;;1.30;1.15;;;;;;;22.30;51.70;96118.16;5131310;27;20028;-63
2022/05/18 04:34:12;;;;;;;1.40;1.00;;;;;;;22.27;50.26;96124.63;5131254;27;20455;-60
2022/05/18 04:36:38;;;;;;;1.35;1.20;;;;;;;22.53;49.57;96136.50;5131240;27;20086;-62
2022/05/18 04:39:04;;;;;;;2.70;1.20;;;;;;;22.90;51.14;96126.91;5131171;27;20108;-63
2022/05/18 04:41:29;;;;;;;3.13;1.10;;;;;;;23.25;49.94;96127.16;5131116;27;20062;-64
2022/05/18 04:43:55;;;;;;;2.45;1.30;;;;;;;23.68;48.49;96127.50;5131084;27;20077;-64
2022/05/18 04:46:21;;;;;;;1.80;1.00;;;;;;;23.94;45.49;96124.94;5131256;27;20019;-62
2022/05/18 04:48:46;;;;;;;1.52;1.20;;;;;;;24.07;45.46;96126.38;5131134;27;20019;-62
2022/05/18 04:51:13;;;;;;;1.17;1.00;;;;;;;24.21;43.85;96133.03;5130931;27;20031;-62
2022/05/18 04:53:38;;;;;;;5.45;0.80;;;;;;;24.12;41.75;96132.09;5130836;27;20026;-63
2022/05/18 04:56:05;;;;;;;1.48;1.02;;;;;;;24.01;43.71;96135.84;5130913;27;20015;-62
2022/05/18 04:58:31;;;;;;;3.95;0.88;;;;;;;24.25;43.98;96137.06;5130711;27;20055;-62
2022/05/18 05:01:00;;;;;;;0.90;0.90;;;;;;;24.23;43.16;96139.91;5130852;27;20138;-62
2022/05/18 05:03:26;;;;;;;1.48;0.90;;;;;;;24.34;43.81;96143.31;5130757;27;20376;-63
2022/05/18 05:05:52;;;;;;;2.15;0.98;;;;;;;24.63;44.11;96152.06;5130769;27;20027;-63
2022/05/18 05:08:18;;;;;;;1.00;0.95;;;;;;;24.74;43.24;96141.94;5130644;27;20016;-60
2022/05/18 05:10:44;;;;;;;1.33;1.10;;;;;;;24.61;42.48;96149.53;5130674;27;20164;-62
2022/05/18 05:13:09;;;;;;;2.25;0.80;;;;;;;24.38;43.14;96155.38;5130611;28;20035;-61
2022/05/18 05:15:37;;;;;;;1.02;0.90;;;;;;;24.17;43.77;96155.72;5130529;27;20031;-61
2022/05/18 05:18:03;;;;;;;3.15;1.10;;;;;;;23.80;45.30;96155.66;5130334;27;20019;-60
2022/05/18 05:20:28;;;;;;;1.42;1.10;;;;;;;24.16;45.27;96148.66;5130337;27;20020;-62
2022/05/18 05:22:54;;;;;;;4.32;1.20;;;;;;;24.43;44.44;96152.22;5130419;27;20068;-61
2022/05/18 05:25:20;;;;;;;1.15;0.80;;;;;;;24.56;45.32;96152.66;5130358;27;20031;-62
2022/05/18 05:27:45;;;;;;;2.55;1.38;;;;;;;24.84;42.06;96149.00;5130047;27;20052;-62
2022/05/18 05:30:13;;;;;;;1.05;0.95;;;;;;;25.10;42.31;96165.06;5117107;27;20019;-62
2022/05/18 05:32:40;;;;;;;3.25;0.98;;;;;;;25.44;44.78;96174.09;5116431;28;20020;-60
2022/05/18 05:35:08;;;;;;;1.20;0.90;;;;;;;25.69;40.08;96168.84;5116426;28;20045;-60
2022/05/18 05:37:34;;;;;;;1.17;1.00;;;;;;;25.70;39.57;96165.16;5116384;28;20027;-61
2022/05/18 05:40:00;;;;;;;1.90;0.95;;;;;;;25.80;38.98;96169.56;5116312;28;20026;-61
2022/05/18 05:42:26;;;;;;;1.10;1.00;;;;;;;25.74;41.97;96173.72;5116422;28;20098;-62
2022/05/18 05:44:52;;;;;;;2.40;1.38;;;;;;;25.64;39.18;96171.16;5116236;28;20107;-62
2022/05/18 05:47:18;;;;;;;2.38;0.90;;;;;;;25.52;42.33;96175.13;5116125;28;20020;-61
2022/05/18 05:49:44;;;;;;;2.63;1.20;;;;;;;25.70;41.89;96181.22;5116249;27;20085;-61
2022/05/18 05:52:11;;;;;;;1.27;1.00;;;;;;;25.69;41.36;96176.03;5116135;28;20038;-61
2022/05/18 05:54:37;;;;;;;1.30;1.20;;;;;;;25.63;42.20;96182.03;5114823;28;20384;-60
2022/05/18 05:57:04;;;;;;;1.70;1.10;;;;;;;25.83;41.70;96186.13;5115869;28;20020;-61
2022/05/18 05:59:32;;;;;;;1.55;1.45;;;;;;;26.09;40.61;96187.84;5115933;28;20024;-60
2022/05/18 06:02:00;;;;;;;1.23;1.13;;;;;;;25.94;40.27;96192.16;5116090;28;20024;-61
2022/05/18 06:04:29;;;;;;;2.17;1.52;;;;;;;26.03;42.24;96191.19;5115922;28;20358;-61
2022/05/18 06:06:55;;;;;;;2.55;1.95;;;;;;;26.23;40.81;96190.88;5115946;28;20427;-61
2022/05/18 06:09:20;;;;;;;3.45;2.00;;;;;;;26.18;40.45;96196.75;5115821;28;20051;-60
2022/05/18 06:11:46;;;;;;;2.70;2.40;;;;;;;25.97;41.36;96198.03;5115667;28;20032;-60
2022/05/18 06:14:11;;;;;;;2.50;2.30;;;;;;;26.11;40.69;96199.25;5115732;28;20020;-61
2022/05/18 06:16:37;;;;;;;4.90;2.60;;;;;;;26.17;40.90;96196.91;5115670;27;20070;-60
2022/05/18 06:19:03;;;;;;;4.78;3.15;;;;;;;26.17;40.96;96197.75;5115594;28;20106;-62
2022/05/18 06:21:29;;;;;;;2.80;2.60;;;;;;;25.90;42.38;96194.34;5115671;28;20020;-62
2022/05/18 06:23:55;;;;;;;5.10;3.20;;;;;;;25.88;43.00;96195.53;5115416;28;20080;-60
2022/05/18 06:26:21;;;;;;;3.33;2.65;;;;;;;25.83;42.55;96198.69;5115576;28;20349;-61
2022/05/18 06:28:47;;;;;;;5.13;2.83;;;;;;;26.01;41.23;96201.25;5115029;28;20095;-61
2022/05/18 06:31:12;;;;;;;4.20;3.13;;;;;;;26.36;43.08;96193.09;5115336;28;20455;-60
2022/05/18 06:33:39;;;;;;;4.28;3.10;;;;;;;26.52;41.24;96194.97;5115129;28;20019;-61
2022/05/18 06:36:05;;;;;;;4.10;3.17;;;;;;;26.29;40.64;96200.97;5115242;28;20120;-61
2022/05/18 06:38:31;;;;;;;3.55;3.05;;;;;;;25.93;41.93;96196.69;5115262;28;20482;-61
2022/05/18 06:43:41;;;;;;;3.92;3.45;;;;;;;26.36;40.90;96201.13;5115384;28;20061;-61
2022/05/18 06:46:08;;;;;;;3.35;3.05;;;;;;;26.29;42.04;96200.97;5114981;28;20039;-61
2022/05/18 06:48:35;;;;;;;4.20;3.03;;;;;;;26.58;41.69;96194.28;5115138;28;20072;-61
2022/05/18 06:51:00;;;;;;;3.60;2.95;;;;;;;26.96;38.87;96195.56;5115120;28;20042;-60
2022/05/18 06:53:26;;;;;;;4.53;2.95;;;;;;;27.00;40.11;96211.19;5114947;28;20460;-60
2022/05/18 06:55:52;;;;;;;4.13;2.90;;;;;;;27.06;39.93;96208.84;5114800;28;20054;-62
2022/05/18 06:58:18;;;;;;;4.43;3.22;;;;;;;26.88;40.72;96207.19;5114668;28;20472;-61
2022/05/18 07:00:44;;;;;;;4.47;2.90;;;;;;;26.78;41.49;96206.53;5114708;28;20502;-62
2022/05/18 07:03:11;;;;;;;5.95;3.45;;;;;;;26.30;41.27;96213.38;5114726;28;20073;-61
2022/05/18 07:05:38;;;;;;;6.13;3.30;;;;;;;25.97;41.96;96219.47;5114894;28;20092;-62
2022/05/18 07:08:04;;;;;;;4.82;3.40;;;;;;;25.58;41.86;96218.16;5114851;28;20123;-62
2022/05/18 07:10:30;;;;;;;5.28;3.03;;;;;;;25.08;44.36;96212.53;5114523;28;20058;-60
2022/05/18 07:12:56;;;;;;;3.85;2.88;;;;;;;24.82;44.14;96213.34;5114582;28;20102;-61
2022/05/18 07:15:22;;;;;;;4.32;3.35;;;;;;;24.50;45.42;96214.75;5114561;28;20456;-61
2022/05/18 07:17:48;;;;;;;9.85;3.20;;;;;;;24.44;44.58;96212.72;5114436;28;20066;-63
2022/05/18 07:20:13;;;;;;;11.52;3.70;;;;;;;24.42;44.91;96220.03;5114382;28;20030;-62
2022/05/18 07:22:39;;;;;;;5.13;3.17;;;;;;;24.37;45.61;96215.16;5114316;28;20410;-60
2022/05/18 07:25:05;;;;;;;7.35;2.95;;;;;;;24.38;45.97;96224.03;5114390;28;20023;-62
2022/05/18 07:27:31;;;;;;;5.85;3.40;;;;;;;24.62;46.08;96226.06;5114017;28;20153;-61
2022/05/18 07:29:57;;;;;;;8.63;2.80;;;;;;;24.48;44.80;96230.13;5114189;28;20459;-61
2022/05/18 07:32:23;;;;;;;5.78;2.75;;;;;;;24.19;46.03;96234.69;5114050;28;20031;-61
2022/05/18 07:34:49;;;;;;;2.92;2.63;;;;;;;23.92;47.87;96240.88;5114040;28;20411;-61
2022/05/18 07:37:19;;;;;;;7.72;2.30;;;;;;;23.84;47.98;96239.81;5114122;28;20035;-61
2022/05/18 07:39:45;;;;;;;3.65;2.38;;;;;;;23.69;47.76;96247.47;5114037;28;20035;-61
2022/05/18 07:42:11;;;;;;;2.35;2.10;;;;;;;23.62;48.91;96243.72;5114102;28;20429;-61
2022/05/18 07:44:38;;;;;;;12.88;2.72;;;;;;;23.47;48.31;96246.88;5114121;28;20062;-60
2022/05/18 07:47:06;;;;;;;6.68;2.53;;;;;;;23.12;49.08;96243.03;5113963;28;20178;-61
2022/05/18 07:49:37;;;;;;;11.80;2.65;;;;;;;22.69;50.35;96254.03;5113809;28;20020;-60
2022/05/18 07:52:04;;;;;;;5.60;2.15;;;;;;;22.40;51.72;96262.03;5113567;28;20019;-61
2022/05/18 07:54:29;;;;;;;13.80;3.80;;;;;;;22.21;51.83;96263.66;5113898;28;20032;-62
2022/05/18 07:56:55;;;;;;;3.25;2.30;;;;;;;22.06;51.92;96249.91;5113758;28;20032;-62
2022/05/18 07:59:20;;;;;;;5.00;2.95;;;;;;;21.97;53.25;96256.91;5113852;28;20099;-62
2022/05/18 08:01:46;;;;;;;2.70;2.45;;;;;;;21.94;52.82;96258.03;5114024;28;20536;-62
2022/05/18 08:04:11;;;;;;;4.93;2.90;;;;;;;21.86;52.56;96257.03;5113800;28;20547;-62
2022/05/18 08:06:38;;;;;;;2.40;2.20;;;;;;;21.78;53.19;96271.00;5113845;28;20144;-63
2022/05/18 08:09:04;;;;;;;6.85;2.40;;;;;;;21.66;52.80;96267.56;5113824;28;20032;-63
2022/05/18 08:16:58;;;;;;;3.25;2.33;;;;;;;21.99;52.73;96272.75;5113579;28;20077;-62
2022/05/18 08:19:24;;;;;;;9.05;2.80;;;;;;;21.93;53.49;96271.47;5113687;28;20418;-62
2022/05/18 08:21:49;;;;;;;4.53;2.30;;;;;;;22.09;50.38;96282.44;5112413;28;20212;-63
2022/05/18 08:24:15;;;;;;;3.25;2.15;;;;;;;22.26;51.61;96274.75;5113697;28;20028;-63
2022/05/18 08:26:42;;;;;;;2.55;2.17;;;;;;;22.44;50.10;96282.91;5113519;28;20028;-62
2022/05/18 08:29:08;;;;;;;3.40;2.08;;;;;;;22.40;50.27;96284.19;5113371;28;20036;-61
2022/05/18 08:31:34;;;;;;;5.72;2.45;;;;;;;22.35;52.44;96286.41;5113488;28;20027;-60
2022/05/18 08:34:00;;;;;;;2.20;2.00;;;;;;;22.34;51.44;96288.22;5113359;28;20410;-62
2022/05/18 08:36:27;;;;;;;2.13;1.90;;;;;;;22.47;51.51;96287.97;5113302;28;20020;-63
2022/05/18 08:38:56;;;;;;;26.05;5.13;;;;;;;22.26;51.20;96289.91;5113244;28;20031;-61
2022/05/18 08:41:27;;;;;;;5.22;2.22;;;;;;;22.18;51.68;96282.59;5113341;28;20035;-63
2022/05/18 08:43:56;;;;;;;2.25;2.05;;;;;;;22.08;52.56;96294.09;5113340;28;20074;-62
2022/05/18 08:46:43;;;;;;;3.58;2.47;;;;;;;22.17;51.27;96295.09;5113184;28;20115;-61
2022/05/18 08:49:58;;;;;;;4.90;2.38;;;;;;;22.15;53.74;96307.69;5113360;28;20066;-62
2022/05/18 08:52:59;;;;;;;4.53;2.35;;;;;;;22.09;53.99;96301.09;5108358;28;20039;-62
2022/05/18 08:56:03;;;;;;;4.68;2.38;;;;;;;21.91;54.97;96311.53;5113331;28;20107;-61
2022/05/18 08:58:30;;;;;;;5.57;2.50;;;;;;;21.76;55.93;96315.56;5113050;28;20485;-61
2022/05/18 09:01:04;;;;;;;2.78;2.58;;;;;;;21.74;55.85;96312.16;5113161;28;20030;-60
2022/05/18 09:03:42;;;;;;;2.53;2.30;;;;;;;21.70;56.32;96311.56;5113362;28;20032;-61
2022/05/18 09:06:30;;;;;;;3.28;2.60;;;;;;;21.52;55.98;96314.84;5117190;28;20032;-62
2022/05/18 09:12:12;;;;;;;2.80;2.35;;;;;;;21.39;57.25;96330.19;5117411;28;20043;-61
2022/05/18 09:14:40;;;;;;;2.63;2.38;;;;;;;21.37;57.02;96330.31;5116793;28;20055;-61
2022/05/18 09:17:28;;;;;;;3.30;2.45;;;;;;;21.40;55.17;96332.72;5116758;28;20023;-61
2022/05/18 09:20:17;;;;;;;4.10;2.55;;;;;;;21.49;56.97;96343.56;5116855;28;20027;-63
2022/05/18 09:23:12;;;;;;;7.07;2.88;;;;;;;21.71;56.64;96343.38;5116669;28;20024;-61
2022/05/18 09:26:02;;;;;;;12.20;3.38;;;;;;;21.66;55.23;96358.06;5088883;28;20035;-62
2022/05/18 09:28:51;;;;;;;11.27;2.57;;;;;;;21.49;56.30;96351.53;5116564;28;20043;-61
2022/05/18 09:31:32;;;;;;;1.92;1.60;;;;;;;21.28;54.85;96355.88;5116705;28;20057;-61
2022/05/18 09:34:28;;;;;;;1.52;1.42;;;;;;;21.31;55.07;96354.81;5116504;28;20115;-61
2022/05/18 09:37:09;;;;;;;1.20;1.10;;;;;;;21.04;54.42;96348.19;5116383;28;20035;-63
2022/05/18 09:39:40;;;;;;;1.33;0.73;;;;;;;21.12;54.76;96363.47;5116394;28;20553;-63
2022/05/18 09:42:11;;;;;;;2.05;0.75;;;;;;;21.02;54.97;96366.06;5116493;27;20023;-62
2022/05/18 09:45:18;;;;;;;0.52;0.52;;;;;;;21.02;55.17;96360.75;5116390;28;20350;-62
2022/05/18 09:47:51;;;;;;;0.60;0.40;;;;;;;20.73;53.99;96364.81;5073593;28;20036;-62
2022/05/18 09:50:17;;;;;;;1.30;0.50;;;;;;;20.45;56.07;96361.78;5109550;28;20071;-61
2022/05/18 09:52:45;;;;;;;2.97;0.60;;;;;;;20.12;54.82;96374.97;5116146;28;20456;-62
2022/05/18 09:55:16;;;;;;;1.80;0.35;;;;;;;19.73;55.20;96377.97;5116252;27;20103;-62
2022/05/18 09:57:45;;;;;;;0.30;0.30;;;;;;;19.15;55.63;96387.63;5115987;28;20028;-61
2022/05/18 10:00:19;;;;;;;3.38;0.50;;;;;;;18.54;56.68;96397.31;5115955;28;20042;-62
2022/05/18 10:08:31;;;;;;;4.38;0.40;;;;;;;17.90;59.65;96407.09;5116184;28;20089;-63
2022/05/18 10:11:06;;;;;;;2.28;0.38;;;;;;;17.92;59.50;96410.47;5115773;28;20133;-64
2022/05/18 10:13:35;;;;;;;0.40;0.40;;;;;;;18.05;58.54;96404.31;5115702;28;20055;-62
2022/05/18 10:16:13;;;;;;;3.78;0.40;;;;;;;17.85;60.90;96403.91;5115558;28;20023;-62
2022/05/18 10:18:51;;;;;;;4.38;0.60;;;;;;;17.88;59.19;96397.56;5115589;28;20063;-63
2022/05/18 10:21:20;;;;;;;2.00;0.47;;;;;;;17.91;59.37;96403.47;5115609;28;20077;-62
2022/05/18 10:23:52;;;;;;;1.45;0.50;;;;;;;17.89;58.87;96402.75;5115412;28;20032;-63
2022/05/18 10:26:30;;;;;;;0.35;0.30;;;;;;;17.48;58.50;96406.44;5115547;28;20027;-63
2022/05/18 10:28:56;;;;;;;1.48;0.35;;;;;;;17.23;58.75;96413.41;5115071;28;20047;-63
2022/05/18 10:31:30;;;;;;;0.30;0.30;;;;;;;16.99;59.88;96421.97;5115530;27;20018;-61
2022/05/18 10:34:29;;;;;;;0.57;0.40;;;;;;;16.85;60.66;96431.66;5115565;27;20034;-63
2022/05/18 10:36:58;;;;;;;1.63;0.32;;;;;;;16.93;62.12;96436.44;5081279;28;20092;-63
2022/05/18 10:39:33;;;;;;;0.43;0.40;;;;;;;17.08;62.26;96433.78;5115227;28;20122;-64
2022/05/18 10:42:08;;;;;;;0.38;0.38;;;;;;;17.19;61.06;96441.84;5115367;28;20026;-62
2022/05/18 10:44:36;;;;;;;2.95;0.30;;;;;;;17.29;60.28;96435.00;5115177;28;20024;-61
2022/05/18 10:47:36;;;;;;;0.75;0.30;;;;;;;17.36;59.34;96442.50;5115104;28;20106;-61
2022/05/18 10:50:34;;;;;;;3.73;0.50;;;;;;;17.26;58.79;96445.78;5103618;28;20389;-63
2022/05/18 10:53:12;;;;;;;0.25;0.20;;;;;;;17.14;59.98;96452.72;5115017;28;20028;-61
2022/05/18 10:55:53;;;;;;;1.10;0.38;;;;;;;17.18;60.30;96467.41;5114948;28;20048;-63
2022/05/18 10:58:28;;;;;;;;;;;;;;;17.24;58.73;96476.72;5115244;28;20082;-62
2022/05/18 11:01:00;;;;;;;8.60;0.63;;;;;;;17.04;59.08;96488.59;5114899;28;19912;-63
2022/05/18 11:03:38;;;;;;;1.45;0.25;;;;;;;16.72;59.48;96497.66;5114871;28;20027;-63
2022/05/18 11:06:16;;;;;;;0.20;0.20;;;;;;;16.49;60.16;96493.81;5114862;28;20052;-62
2022/05/18 11:08:42;;;;;;;0.32;0.30;;;;;;;16.37;60.85;96506.81;5114656;28;20015;-62
2022/05/18 11:11:12;;;;;;;0.88;0.40;;;;;;;16.20;60.83;96514.94;5114631;28;20388;-63
2022/05/18 11:13:53;;;;;;;0.75;0.30;;;;;;;16.22;61.16;96519.19;5114608;28;20059;-63
2022/05/18 11:16:24;;;;;;;;;;;;;;;16.15;60.70;96529.28;5114855;28;20122;-61
2022/05/18 11:19:05;;;;;;;2.47;0.40;;;;;;;15.90;60.56;96519.31;5114415;28;20760;-61
2022/05/18 11:21:43;;;;;;;0.40;0.40;;;;;;;15.64;61.76;96522.56;5114548;28;20050;-62
2022/05/18 11:24:21;;;;;;;1.10;0.50;;;;;;;15.32;60.70;96521.81;5114270;28;20156;-61
2022/05/18 11:27:31;;;;;;;4.60;0.70;;;;;;;15.00;62.31;96535.88;5113902;28;20118;-64
2022/05/18 11:30:05;;;;;;;1.48;0.50;;;;;;;14.89;63.10;96547.00;5114264;28;20119;-63
2022/05/18 11:32:50;;;;;;;0.25;0.25;;;;;;;14.63;63.23;96544.84;5114378;28;20421;-63
2022/05/18 11:35:24;;;;;;;0.40;0.40;;;;;;;14.51;63.96;96543.72;5114152;28;20038;-64
2022/05/18 11:38:20;;;;;;;0.65;0.40;;;;;;;14.31;64.21;96551.81;5113995;28;20031;-63
2022/05/18 11:40:58;;;;;;;3.15;0.50;;;;;;;14.05;65.41;96551.44;5059228;28;20048;-63
2022/05/18 11:43:58;;;;;;;0.68;0.50;;;;;;;13.86;64.54;96555.84;5114107;28;20024;-62
2022/05/18 11:46:26;;;;;;;1.80;0.38;;;;;;;13.77;65.26;96570.31;5113995;28;20089;-64
2022/05/18 11:49:10;;;;;;;1.00;0.60;;;;;;;13.85;63.41;96590.13;5113865;28;20430;-62
2022/05/18 11:51:54;;;;;;;1.02;0.60;;;;;;;13.58;62.89;96601.06;5113990;28;20031;-64
2022/05/18 11:54:57;;;;;;;0.52;0.50;;;;;;;13.31;63.69;96615.47;5113909;28;20043;-63
2022/05/18 11:57:46;;;;;;;3.05;0.45;;;;;;;13.17;64.60;96623.13;5113817;28;20027;-63
2022/05/18 12:00:18;;;;;;;1.88;0.50;;;;;;;13.02;65.22;96646.56;5113735;28;20015;-62
2022/05/18 12:02:50;;;;;;;2.95;0.65;;;;;;;12.93;65.59;96660.97;5113760;28;20043;-62
2022/05/18 12:05:42;;;;;;;0.43;0.43;;;;;;;12.64;66.20;96661.34;5113721;28;20023;-62
2022/05/18 12:08:36;;;;;;;0.93;0.68;;;;;;;12.33;65.50;96677.56;5113739;27;20077;-63
2022/05/18 12:11:30;;;;;;;1.00;0.90;;;;;;;12.22;66.54;96694.63;5113693;28;20039;-62
2022/05/18 12:14:20;;;;;;;0.80;0.70;;;;;;;11.74;67.46;96679.06;5113629;28;20090;-64
2022/05/18 12:16:53;;;;;;;1.35;0.60;;;;;;;11.65;68.83;96707.41;5113615;28;20119;-63
2022/05/18 12:19:51;;;;;;;0.98;0.70;;;;;;;11.38;70.22;96700.59;5113807;28;20012;-63
2022/05/18 12:22:28;;;;;;;6.25;0.80;;;;;;;11.04;71.21;96700.09;5113601;28;20110;-62